John Day, Oregon
Current Conditions -  °F | °C
As of 8:35 PM on Monday 20 Oct 2014 (Local Time) from KGCD Reporting Station
Light Rain Light Rain  
Wind Chill: 48°   Ceiling: 4600
Heat Index: 48°   Visibility: 10mi
Dew Point: 46°   Wind: 0mph
Humidity: 92%   Direction: NA
Pressure: 29.88"   Gusts: NA
Location:  44.42°N, 118.95°W
Report Text: KGCD 210335Z AUTO 00000KT 10SM -RA SCT022 SCT030 OVC046 09/08 A2988 RMK AO2 P0002 T00900077
Loading
Personal Weather Stations






























Interactive Weather Map
Tropical Storm Tracking
New forecast layout! Learn more

10-Day Weather Forecast

Advertisements
Track Severe Weather on mobile